sensor_id;sensor_type;location;lat;lon;timestamp;P1;durP1;ratioP1;P2;durP2;ratioP2
25073;SDS011;13066;52.042;5.648;2023-07-20T00:02:20;10.23;;;7.03;;
25073;SDS011;13066;52.042;5.648;2023-07-20T00:04:49;11.50;;;7.18;;
25073;SDS011;13066;52.042;5.648;2023-07-20T00:07:17;11.07;;;6.38;;
25073;SDS011;13066;52.042;5.648;2023-07-20T00:09:45;13.32;;;7.00;;
25073;SDS011;13066;52.042;5.648;2023-07-20T00:12:14;10.65;;;6.15;;
25073;SDS011;13066;52.042;5.648;2023-07-20T00:14:42;8.50;;;6.97;;
25073;SDS011;13066;52.042;5.648;2023-07-20T00:17:10;12.88;;;7.25;;
25073;SDS011;13066;52.042;5.648;2023-07-20T00:19:38;9.32;;;6.03;;
25073;SDS011;13066;52.042;5.648;2023-07-20T00:22:07;9.90;;;5.68;;
25073;SDS011;13066;52.042;5.648;2023-07-20T00:24:35;8.73;;;5.82;;
25073;SDS011;13066;52.042;5.648;2023-07-20T00:27:03;10.10;;;6.20;;
25073;SDS011;13066;52.042;5.648;2023-07-20T00:29:32;9.02;;;5.97;;
25073;SDS011;13066;52.042;5.648;2023-07-20T00:32:00;9.88;;;5.88;;
25073;SDS011;13066;52.042;5.648;2023-07-20T00:34:29;8.20;;;5.60;;
25073;SDS011;13066;52.042;5.648;2023-07-20T00:36:57;8.93;;;5.78;;
25073;SDS011;13066;52.042;5.648;2023-07-20T00:39:26;7.72;;;5.10;;
25073;SDS011;13066;52.042;5.648;2023-07-20T00:41:54;11.27;;;5.25;;
25073;SDS011;13066;52.042;5.648;2023-07-20T00:44:23;6.13;;;4.97;;
25073;SDS011;13066;52.042;5.648;2023-07-20T00:46:52;10.57;;;5.60;;
25073;SDS011;13066;52.042;5.648;2023-07-20T00:49:20;8.98;;;5.70;;
25073;SDS011;13066;52.042;5.648;2023-07-20T00:51:48;7.75;;;6.25;;
25073;SDS011;13066;52.042;5.648;2023-07-20T00:54:16;10.18;;;5.28;;
25073;SDS011;13066;52.042;5.648;2023-07-20T00:56:46;7.70;;;5.28;;
25073;SDS011;13066;52.042;5.648;2023-07-20T00:59:14;9.57;;;5.05;;
25073;SDS011;13066;52.042;5.648;2023-07-20T01:01:42;6.13;;;4.65;;
25073;SDS011;13066;52.042;5.648;2023-07-20T01:04:11;6.68;;;5.05;;
25073;SDS011;13066;52.042;5.648;2023-07-20T01:06:42;6.85;;;4.15;;
25073;SDS011;13066;52.042;5.648;2023-07-20T01:09:16;4.85;;;4.22;;
25073;SDS011;13066;52.042;5.648;2023-07-20T01:11:53;6.78;;;3.88;;
25073;SDS011;13066;52.042;5.648;2023-07-20T01:14:31;5.57;;;4.30;;
25073;SDS011;13066;52.042;5.648;2023-07-20T01:16:59;4.03;;;3.17;;
25073;SDS011;13066;52.042;5.648;2023-07-20T01:19:27;5.68;;;3.10;;
25073;SDS011;13066;52.042;5.648;2023-07-20T01:21:59;3.80;;;3.25;;
25073;SDS011;13066;52.042;5.648;2023-07-20T01:24:44;5.05;;;3.20;;
25073;SDS011;13066;52.042;5.648;2023-07-20T01:33:20;4.07;;;2.80;;
25073;SDS011;13066;52.042;5.648;2023-07-20T01:35:54;3.17;;;2.53;;
25073;SDS011;13066;52.042;5.648;2023-07-20T01:38:24;4.88;;;2.58;;
25073;SDS011;13066;52.042;5.648;2023-07-20T01:40:52;3.45;;;2.40;;
25073;SDS011;13066;52.042;5.648;2023-07-20T01:43:20;2.65;;;2.38;;
25073;SDS011;13066;52.042;5.648;2023-07-20T01:45:49;5.72;;;2.78;;
25073;SDS011;13066;52.042;5.648;2023-07-20T01:48:17;3.58;;;2.47;;
25073;SDS011;13066;52.042;5.648;2023-07-20T01:50:46;3.13;;;2.35;;
25073;SDS011;13066;52.042;5.648;2023-07-20T01:53:14;2.85;;;2.40;;
25073;SDS011;13066;52.042;5.648;2023-07-20T01:55:42;3.40;;;2.40;;
25073;SDS011;13066;52.042;5.648;2023-07-20T01:58:11;6.43;;;2.70;;
25073;SDS011;13066;52.042;5.648;2023-07-20T02:00:39;2.38;;;2.17;;
25073;SDS011;13066;52.042;5.648;2023-07-20T02:03:07;3.03;;;2.53;;
25073;SDS011;13066;52.042;5.648;2023-07-20T02:05:35;6.85;;;2.75;;
25073;SDS011;13066;52.042;5.648;2023-07-20T02:08:05;2.90;;;2.55;;
25073;SDS011;13066;52.042;5.648;2023-07-20T02:10:33;4.15;;;2.60;;
25073;SDS011;13066;52.042;5.648;2023-07-20T02:13:00;5.88;;;2.70;;
25073;SDS011;13066;52.042;5.648;2023-07-20T02:15:28;4.10;;;2.95;;
25073;SDS011;13066;52.042;5.648;2023-07-20T02:17:56;6.03;;;2.80;;
25073;SDS011;13066;52.042;5.648;2023-07-20T02:20:24;3.50;;;2.88;;
25073;SDS011;13066;52.042;5.648;2023-07-20T02:22:52;5.57;;;2.63;;
25073;SDS011;13066;52.042;5.648;2023-07-20T02:25:21;3.47;;;2.70;;
25073;SDS011;13066;52.042;5.648;2023-07-20T02:27:49;5.35;;;2.65;;
25073;SDS011;13066;52.042;5.648;2023-07-20T02:30:17;3.20;;;2.90;;
25073;SDS011;13066;52.042;5.648;2023-07-20T02:32:46;4.85;;;2.83;;
25073;SDS011;13066;52.042;5.648;2023-07-20T02:35:15;3.05;;;2.53;;
25073;SDS011;13066;52.042;5.648;2023-07-20T02:37:43;3.05;;;2.45;;
25073;SDS011;13066;52.042;5.648;2023-07-20T02:40:11;2.60;;;2.40;;
25073;SDS011;13066;52.042;5.648;2023-07-20T02:42:41;3.97;;;3.00;;
25073;SDS011;13066;52.042;5.648;2023-07-20T02:45:09;3.28;;;2.72;;
25073;SDS011;13066;52.042;5.648;2023-07-20T02:47:37;3.22;;;2.72;;
25073;SDS011;13066;52.042;5.648;2023-07-20T02:50:06;4.85;;;3.28;;
25073;SDS011;13066;52.042;5.648;2023-07-20T02:52:35;5.82;;;3.38;;
25073;SDS011;13066;52.042;5.648;2023-07-20T02:55:03;4.43;;;3.45;;
25073;SDS011;13066;52.042;5.648;2023-07-20T02:57:32;3.67;;;2.90;;
25073;SDS011;13066;52.042;5.648;2023-07-20T03:00:01;4.30;;;3.10;;
25073;SDS011;13066;52.042;5.648;2023-07-20T03:02:31;3.35;;;2.60;;
25073;SDS011;13066;52.042;5.648;2023-07-20T03:04:59;7.10;;;3.20;;
25073;SDS011;13066;52.042;5.648;2023-07-20T03:07:29;4.35;;;3.22;;
25073;SDS011;13066;52.042;5.648;2023-07-20T03:09:57;3.70;;;3.03;;
25073;SDS011;13066;52.042;5.648;2023-07-20T03:12:25;3.55;;;3.03;;
25073;SDS011;13066;52.042;5.648;2023-07-20T03:14:53;3.72;;;3.20;;
25073;SDS011;13066;52.042;5.648;2023-07-20T03:17:26;4.57;;;3.35;;
25073;SDS011;13066;52.042;5.648;2023-07-20T03:19:53;3.70;;;2.92;;
25073;SDS011;13066;52.042;5.648;2023-07-20T03:22:22;3.60;;;3.30;;
25073;SDS011;13066;52.042;5.648;2023-07-20T03:24:50;3.58;;;3.17;;
25073;SDS011;13066;52.042;5.648;2023-07-20T03:27:19;4.90;;;3.20;;
25073;SDS011;13066;52.042;5.648;2023-07-20T03:29:47;3.10;;;2.80;;
25073;SDS011;13066;52.042;5.648;2023-07-20T03:32:15;4.95;;;3.50;;
25073;SDS011;13066;52.042;5.648;2023-07-20T03:34:44;3.72;;;3.25;;
25073;SDS011;13066;52.042;5.648;2023-07-20T03:37:13;3.72;;;3.30;;
25073;SDS011;13066;52.042;5.648;2023-07-20T03:39:42;7.97;;;4.13;;
25073;SDS011;13066;52.042;5.648;2023-07-20T03:42:10;7.25;;;4.18;;
25073;SDS011;13066;52.042;5.648;2023-07-20T03:44:37;10.18;;;5.00;;
25073;SDS011;13066;52.042;5.648;2023-07-20T03:47:07;11.32;;;4.65;;
25073;SDS011;13066;52.042;5.648;2023-07-20T03:49:35;6.32;;;4.97;;
25073;SDS011;13066;52.042;5.648;2023-07-20T03:52:05;5.63;;;5.10;;
25073;SDS011;13066;52.042;5.648;2023-07-20T03:54:33;7.65;;;4.80;;
25073;SDS011;13066;52.042;5.648;2023-07-20T03:57:01;7.15;;;4.78;;
25073;SDS011;13066;52.042;5.648;2023-07-20T03:59:29;5.75;;;4.60;;
25073;SDS011;13066;52.042;5.648;2023-07-20T04:01:57;6.93;;;4.45;;
25073;SDS011;13066;52.042;5.648;2023-07-20T04:04:25;7.20;;;4.43;;
25073;SDS011;13066;52.042;5.648;2023-07-20T04:06:53;6.80;;;4.70;;
25073;SDS011;13066;52.042;5.648;2023-07-20T04:09:22;9.30;;;4.40;;
25073;SDS011;13066;52.042;5.648;2023-07-20T04:11:50;4.53;;;4.03;;
25073;SDS011;13066;52.042;5.648;2023-07-20T04:14:19;5.60;;;3.80;;
25073;SDS011;13066;52.042;5.648;2023-07-20T04:16:46;8.70;;;5.13;;
25073;SDS011;13066;52.042;5.648;2023-07-20T04:19:14;5.97;;;5.05;;
25073;SDS011;13066;52.042;5.648;2023-07-20T04:21:44;5.63;;;4.82;;
25073;SDS011;13066;52.042;5.648;2023-07-20T04:24:12;5.53;;;4.30;;
25073;SDS011;13066;52.042;5.648;2023-07-20T04:26:42;6.90;;;4.63;;
25073;SDS011;13066;52.042;5.648;2023-07-20T04:29:10;8.23;;;5.00;;
25073;SDS011;13066;52.042;5.648;2023-07-20T04:31:41;5.05;;;4.55;;
25073;SDS011;13066;52.042;5.648;2023-07-20T04:34:10;6.82;;;4.32;;
25073;SDS011;13066;52.042;5.648;2023-07-20T04:36:38;8.10;;;5.03;;
25073;SDS011;13066;52.042;5.648;2023-07-20T04:39:06;5.90;;;5.30;;
25073;SDS011;13066;52.042;5.648;2023-07-20T04:41:54;5.85;;;5.03;;
25073;SDS011;13066;52.042;5.648;2023-07-20T04:44:22;6.22;;;4.63;;
25073;SDS011;13066;52.042;5.648;2023-07-20T04:46:50;8.30;;;5.20;;
25073;SDS011;13066;52.042;5.648;2023-07-20T04:49:18;7.55;;;4.88;;
25073;SDS011;13066;52.042;5.648;2023-07-20T04:51:47;9.13;;;5.05;;
25073;SDS011;13066;52.042;5.648;2023-07-20T04:54:16;7.13;;;4.95;;
25073;SDS011;13066;52.042;5.648;2023-07-20T04:56:45;5.30;;;4.47;;
25073;SDS011;13066;52.042;5.648;2023-07-20T04:59:19;7.47;;;4.30;;
25073;SDS011;13066;52.042;5.648;2023-07-20T05:01:47;8.50;;;4.35;;
25073;SDS011;13066;52.042;5.648;2023-07-20T05:04:16;6.18;;;4.05;;
25073;SDS011;13066;52.042;5.648;2023-07-20T05:06:45;7.03;;;4.63;;
25073;SDS011;13066;52.042;5.648;2023-07-20T05:09:13;5.97;;;4.32;;
25073;SDS011;13066;52.042;5.648;2023-07-20T05:11:41;10.10;;;3.65;;
25073;SDS011;13066;52.042;5.648;2023-07-20T05:14:11;9.07;;;4.00;;
25073;SDS011;13066;52.042;5.648;2023-07-20T05:16:41;5.32;;;3.42;;
25073;SDS011;13066;52.042;5.648;2023-07-20T05:19:09;4.00;;;3.58;;
25073;SDS011;13066;52.042;5.648;2023-07-20T05:21:37;5.65;;;4.03;;
25073;SDS011;13066;52.042;5.648;2023-07-20T05:24:06;5.53;;;4.20;;
25073;SDS011;13066;52.042;5.648;2023-07-20T05:26:34;5.28;;;3.92;;
25073;SDS011;13066;52.042;5.648;2023-07-20T05:29:02;7.35;;;4.00;;
25073;SDS011;13066;52.042;5.648;2023-07-20T05:31:30;4.18;;;3.75;;
25073;SDS011;13066;52.042;5.648;2023-07-20T05:34:00;5.40;;;3.90;;
25073;SDS011;13066;52.042;5.648;2023-07-20T05:36:28;5.20;;;3.97;;
25073;SDS011;13066;52.042;5.648;2023-07-20T05:38:57;7.47;;;4.20;;
25073;SDS011;13066;52.042;5.648;2023-07-20T05:41:25;7.55;;;4.35;;
25073;SDS011;13066;52.042;5.648;2023-07-20T05:43:53;8.50;;;3.90;;
25073;SDS011;13066;52.042;5.648;2023-07-20T05:46:21;6.03;;;3.70;;
25073;SDS011;13066;52.042;5.648;2023-07-20T05:48:52;5.88;;;4.13;;
25073;SDS011;13066;52.042;5.648;2023-07-20T05:51:21;7.18;;;4.05;;
25073;SDS011;13066;52.042;5.648;2023-07-20T05:53:49;5.30;;;3.63;;
25073;SDS011;13066;52.042;5.648;2023-07-20T05:56:17;4.22;;;3.35;;
25073;SDS011;13066;52.042;5.648;2023-07-20T05:58:45;6.15;;;2.88;;
25073;SDS011;13066;52.042;5.648;2023-07-20T06:01:13;4.32;;;2.97;;
25073;SDS011;13066;52.042;5.648;2023-07-20T06:03:41;5.30;;;2.33;;
25073;SDS011;13066;52.042;5.648;2023-07-20T06:06:09;3.85;;;2.25;;
25073;SDS011;13066;52.042;5.648;2023-07-20T06:08:40;5.78;;;2.13;;
25073;SDS011;13066;52.042;5.648;2023-07-20T06:11:08;3.28;;;1.63;;
25073;SDS011;13066;52.042;5.648;2023-07-20T06:13:36;2.53;;;1.90;;
25073;SDS011;13066;52.042;5.648;2023-07-20T06:16:04;2.60;;;1.80;;
25073;SDS011;13066;52.042;5.648;2023-07-20T06:18:32;2.45;;;1.83;;
25073;SDS011;13066;52.042;5.648;2023-07-20T06:21:00;3.83;;;2.20;;
25073;SDS011;13066;52.042;5.648;2023-07-20T06:23:28;2.38;;;2.03;;
25073;SDS011;13066;52.042;5.648;2023-07-20T06:25:57;2.13;;;1.50;;
25073;SDS011;13066;52.042;5.648;2023-07-20T06:28:25;2.40;;;1.50;;
25073;SDS011;13066;52.042;5.648;2023-07-20T06:30:59;3.38;;;1.20;;
25073;SDS011;13066;52.042;5.648;2023-07-20T06:33:27;3.28;;;2.00;;
25073;SDS011;13066;52.042;5.648;2023-07-20T06:35:56;3.92;;;2.03;;
25073;SDS011;13066;52.042;5.648;2023-07-20T06:38:24;2.97;;;2.13;;
25073;SDS011;13066;52.042;5.648;2023-07-20T06:40:55;3.75;;;2.25;;
25073;SDS011;13066;52.042;5.648;2023-07-20T06:43:24;4.07;;;2.50;;
25073;SDS011;13066;52.042;5.648;2023-07-20T06:45:55;10.13;;;2.75;;
25073;SDS011;13066;52.042;5.648;2023-07-20T06:48:23;2.65;;;2.20;;
25073;SDS011;13066;52.042;5.648;2023-07-20T06:50:51;3.85;;;1.90;;
25073;SDS011;13066;52.042;5.648;2023-07-20T06:53:20;2.72;;;2.13;;
25073;SDS011;13066;52.042;5.648;2023-07-20T06:55:48;3.42;;;1.90;;
25073;SDS011;13066;52.042;5.648;2023-07-20T06:58:16;4.15;;;2.60;;
25073;SDS011;13066;52.042;5.648;2023-07-20T07:00:47;3.15;;;2.60;;
25073;SDS011;13066;52.042;5.648;2023-07-20T07:03:15;4.05;;;2.40;;
25073;SDS011;13066;52.042;5.648;2023-07-20T07:05:43;3.03;;;1.90;;
25073;SDS011;13066;52.042;5.648;2023-07-20T07:08:16;5.68;;;2.20;;
25073;SDS011;13066;52.042;5.648;2023-07-20T07:10:44;4.30;;;2.47;;
25073;SDS011;13066;52.042;5.648;2023-07-20T07:13:11;3.67;;;2.00;;
25073;SDS011;13066;52.042;5.648;2023-07-20T07:15:39;5.20;;;1.92;;
25073;SDS011;13066;52.042;5.648;2023-07-20T07:18:09;3.58;;;1.95;;
25073;SDS011;13066;52.042;5.648;2023-07-20T07:20:37;3.38;;;1.98;;
25073;SDS011;13066;52.042;5.648;2023-07-20T07:23:05;2.67;;;1.33;;
25073;SDS011;13066;52.042;5.648;2023-07-20T07:25:33;5.57;;;1.80;;
25073;SDS011;13066;52.042;5.648;2023-07-20T07:28:01;2.95;;;2.05;;
25073;SDS011;13066;52.042;5.648;2023-07-20T07:30:29;2.25;;;1.80;;
25073;SDS011;13066;52.042;5.648;2023-07-20T07:33:00;3.22;;;1.77;;
25073;SDS011;13066;52.042;5.648;2023-07-20T07:35:29;4.60;;;1.92;;
25073;SDS011;13066;52.042;5.648;2023-07-20T07:37:57;3.72;;;2.13;;
25073;SDS011;13066;52.042;5.648;2023-07-20T07:40:44;3.28;;;1.75;;
25073;SDS011;13066;52.042;5.648;2023-07-20T07:43:13;3.38;;;1.50;;
25073;SDS011;13066;52.042;5.648;2023-07-20T07:45:41;3.88;;;1.70;;
25073;SDS011;13066;52.042;5.648;2023-07-20T07:48:09;2.70;;;1.55;;
25073;SDS011;13066;52.042;5.648;2023-07-20T07:50:40;2.65;;;1.90;;
25073;SDS011;13066;52.042;5.648;2023-07-20T07:53:08;2.08;;;1.50;;
25073;SDS011;13066;52.042;5.648;2023-07-20T07:55:36;2.13;;;1.27;;
25073;SDS011;13066;52.042;5.648;2023-07-20T07:58:04;1.95;;;1.10;;
25073;SDS011;13066;52.042;5.648;2023-07-20T08:00:32;1.48;;;1.10;;
25073;SDS011;13066;52.042;5.648;2023-07-20T08:03:00;4.10;;;1.70;;
25073;SDS011;13066;52.042;5.648;2023-07-20T08:05:28;2.33;;;1.52;;
25073;SDS011;13066;52.042;5.648;2023-07-20T08:07:58;2.60;;;1.40;;
25073;SDS011;13066;52.042;5.648;2023-07-20T08:10:26;2.92;;;1.50;;
25073;SDS011;13066;52.042;5.648;2023-07-20T08:12:54;3.53;;;1.50;;
25073;SDS011;13066;52.042;5.648;2023-07-20T08:15:21;3.72;;;1.60;;
25073;SDS011;13066;52.042;5.648;2023-07-20T08:17:49;3.42;;;2.20;;
25073;SDS011;13066;52.042;5.648;2023-07-20T08:20:19;3.13;;;1.50;;
25073;SDS011;13066;52.042;5.648;2023-07-20T08:22:54;3.55;;;2.70;;
25073;SDS011;13066;52.042;5.648;2023-07-20T08:25:23;1.80;;;1.38;;
25073;SDS011;13066;52.042;5.648;2023-07-20T08:27:52;3.38;;;1.52;;
25073;SDS011;13066;52.042;5.648;2023-07-20T08:30:21;2.55;;;1.40;;
25073;SDS011;13066;52.042;5.648;2023-07-20T08:32:48;6.05;;;1.50;;
25073;SDS011;13066;52.042;5.648;2023-07-20T08:35:17;2.05;;;1.42;;
25073;SDS011;13066;52.042;5.648;2023-07-20T08:37:48;3.65;;;1.58;;
25073;SDS011;13066;52.042;5.648;2023-07-20T08:40:16;2.22;;;1.33;;
25073;SDS011;13066;52.042;5.648;2023-07-20T08:42:45;2.28;;;1.33;;
25073;SDS011;13066;52.042;5.648;2023-07-20T08:45:14;2.90;;;1.50;;
25073;SDS011;13066;52.042;5.648;2023-07-20T08:47:44;2.00;;;1.27;;
25073;SDS011;13066;52.042;5.648;2023-07-20T08:50:13;3.38;;;1.40;;
25073;SDS011;13066;52.042;5.648;2023-07-20T08:52:41;2.47;;;1.38;;
25073;SDS011;13066;52.042;5.648;2023-07-20T08:55:09;3.67;;;1.48;;
25073;SDS011;13066;52.042;5.648;2023-07-20T08:57:37;3.65;;;1.75;;
25073;SDS011;13066;52.042;5.648;2023-07-20T09:00:09;2.22;;;1.90;;
25073;SDS011;13066;52.042;5.648;2023-07-20T09:02:39;1.95;;;1.20;;
25073;SDS011;13066;52.042;5.648;2023-07-20T09:05:08;2.42;;;1.40;;
25073;SDS011;13066;52.042;5.648;2023-07-20T09:07:36;1.42;;;1.10;;
25073;SDS011;13066;52.042;5.648;2023-07-20T09:10:05;3.05;;;1.17;;
25073;SDS011;13066;52.042;5.648;2023-07-20T09:12:34;2.97;;;0.90;;
25073;SDS011;13066;52.042;5.648;2023-07-20T09:15:03;1.55;;;1.10;;
25073;SDS011;13066;52.042;5.648;2023-07-20T09:17:34;5.97;;;1.15;;
25073;SDS011;13066;52.042;5.648;2023-07-20T09:20:03;4.50;;;1.67;;
25073;SDS011;13066;52.042;5.648;2023-07-20T09:22:37;5.13;;;1.35;;
25073;SDS011;13066;52.042;5.648;2023-07-20T09:25:07;7.82;;;1.40;;
25073;SDS011;13066;52.042;5.648;2023-07-20T09:27:36;11.75;;;1.65;;
25073;SDS011;13066;52.042;5.648;2023-07-20T09:30:05;5.50;;;1.80;;
25073;SDS011;13066;52.042;5.648;2023-07-20T09:32:40;1.90;;;1.48;;
25073;SDS011;13066;52.042;5.648;2023-07-20T09:35:13;10.18;;;2.30;;
25073;SDS011;13066;52.042;5.648;2023-07-20T09:37:49;6.35;;;1.90;;
25073;SDS011;13066;52.042;5.648;2023-07-20T09:40:39;1.50;;;1.00;;
25073;SDS011;13066;52.042;5.648;2023-07-20T09:43:10;2.28;;;1.10;;
25073;SDS011;13066;52.042;5.648;2023-07-20T09:45:41;2.40;;;1.30;;
25073;SDS011;13066;52.042;5.648;2023-07-20T09:48:14;2.10;;;1.10;;
25073;SDS011;13066;52.042;5.648;2023-07-20T09:50:48;1.73;;;1.00;;
25073;SDS011;13066;52.042;5.648;2023-07-20T09:53:18;1.08;;;0.90;;
25073;SDS011;13066;52.042;5.648;2023-07-20T09:55:47;2.45;;;1.73;;
25073;SDS011;13066;52.042;5.648;2023-07-20T09:58:15;2.72;;;1.20;;
25073;SDS011;13066;52.042;5.648;2023-07-20T10:00:44;2.83;;;1.38;;
25073;SDS011;13066;52.042;5.648;2023-07-20T10:03:21;2.63;;;1.42;;
25073;SDS011;13066;52.042;5.648;2023-07-20T10:05:52;1.83;;;1.10;;
25073;SDS011;13066;52.042;5.648;2023-07-20T10:08:24;3.05;;;1.15;;
25073;SDS011;13066;52.042;5.648;2023-07-20T10:10:59;4.55;;;1.30;;
25073;SDS011;13066;52.042;5.648;2023-07-20T10:13:29;2.78;;;1.00;;
25073;SDS011;13066;52.042;5.648;2023-07-20T10:15:59;2.38;;;1.00;;
25073;SDS011;13066;52.042;5.648;2023-07-20T10:18:32;1.45;;;1.02;;
25073;SDS011;13066;52.042;5.648;2023-07-20T10:21:04;5.35;;;1.23;;
25073;SDS011;13066;52.042;5.648;2023-07-20T10:23:37;2.40;;;1.00;;
25073;SDS011;13066;52.042;5.648;2023-07-20T10:26:06;2.65;;;1.00;;
25073;SDS011;13066;52.042;5.648;2023-07-20T10:28:35;2.83;;;1.08;;
25073;SDS011;13066;52.042;5.648;2023-07-20T10:31:03;1.35;;;0.75;;
25073;SDS011;13066;52.042;5.648;2023-07-20T10:33:34;1.17;;;1.08;;
25073;SDS011;13066;52.042;5.648;2023-07-20T10:36:02;1.83;;;1.00;;
25073;SDS011;13066;52.042;5.648;2023-07-20T10:38:38;3.75;;;1.10;;
25073;SDS011;13066;52.042;5.648;2023-07-20T10:41:15;1.23;;;0.88;;
25073;SDS011;13066;52.042;5.648;2023-07-20T10:43:46;4.85;;;1.05;;
25073;SDS011;13066;52.042;5.648;2023-07-20T10:46:15;1.48;;;1.10;;
25073;SDS011;13066;52.042;5.648;2023-07-20T10:49:03;2.33;;;1.00;;
25073;SDS011;13066;52.042;5.648;2023-07-20T10:51:38;1.30;;;0.95;;
25073;SDS011;13066;52.042;5.648;2023-07-20T10:54:33;5.60;;;1.00;;
25073;SDS011;13066;52.042;5.648;2023-07-20T10:57:24;2.65;;;1.23;;
25073;SDS011;13066;52.042;5.648;2023-07-20T11:00:09;2.75;;;1.00;;
25073;SDS011;13066;52.042;5.648;2023-07-20T11:02:48;2.53;;;1.00;;
25073;SDS011;13066;52.042;5.648;2023-07-20T11:05:35;0.88;;;0.70;;
25073;SDS011;13066;52.042;5.648;2023-07-20T11:08:06;3.92;;;0.85;;
25073;SDS011;13066;52.042;5.648;2023-07-20T11:10:37;4.88;;;1.00;;
25073;SDS011;13066;52.042;5.648;2023-07-20T11:16:03;1.05;;;0.70;;
25073;SDS011;13066;52.042;5.648;2023-07-20T11:18:35;1.10;;;0.80;;
25073;SDS011;13066;52.042;5.648;2023-07-20T11:21:09;3.15;;;0.93;;
25073;SDS011;13066;52.042;5.648;2023-07-20T11:23:38;5.50;;;0.80;;
25073;SDS011;13066;52.042;5.648;2023-07-20T11:26:07;2.20;;;0.80;;
25073;SDS011;13066;52.042;5.648;2023-07-20T11:28:36;2.70;;;0.90;;
25073;SDS011;13066;52.042;5.648;2023-07-20T11:31:04;4.95;;;1.10;;
25073;SDS011;13066;52.042;5.648;2023-07-20T11:33:32;0.70;;;0.70;;
25073;SDS011;13066;52.042;5.648;2023-07-20T11:36:00;1.30;;;0.75;;
25073;SDS011;13066;52.042;5.648;2023-07-20T11:38:29;2.08;;;0.70;;
25073;SDS011;13066;52.042;5.648;2023-07-20T11:40:57;4.78;;;0.85;;
25073;SDS011;13066;52.042;5.648;2023-07-20T11:43:25;3.60;;;0.82;;
25073;SDS011;13066;52.042;5.648;2023-07-20T11:45:53;4.93;;;1.00;;
25073;SDS011;13066;52.042;5.648;2023-07-20T11:48:21;1.08;;;0.80;;
25073;SDS011;13066;52.042;5.648;2023-07-20T11:50:49;1.60;;;1.00;;
25073;SDS011;13066;52.042;5.648;2023-07-20T11:53:17;3.78;;;1.17;;
25073;SDS011;13066;52.042;5.648;2023-07-20T11:55:48;2.53;;;1.00;;
25073;SDS011;13066;52.042;5.648;2023-07-20T11:58:16;8.07;;;1.92;;
25073;SDS011;13066;52.042;5.648;2023-07-20T12:00:44;3.50;;;1.00;;
25073;SDS011;13066;52.042;5.648;2023-07-20T12:03:13;3.00;;;0.90;;
25073;SDS011;13066;52.042;5.648;2023-07-20T12:05:41;1.55;;;0.80;;
25073;SDS011;13066;52.042;5.648;2023-07-20T12:08:26;2.35;;;0.90;;
25073;SDS011;13066;52.042;5.648;2023-07-20T12:10:55;1.30;;;0.88;;
25073;SDS011;13066;52.042;5.648;2023-07-20T12:13:24;0.60;;;0.60;;
25073;SDS011;13066;52.042;5.648;2023-07-20T12:16:09;2.67;;;0.90;;
25073;SDS011;13066;52.042;5.648;2023-07-20T12:18:40;2.47;;;0.75;;
25073;SDS011;13066;52.042;5.648;2023-07-20T12:21:08;2.67;;;0.90;;
25073;SDS011;13066;52.042;5.648;2023-07-20T12:23:37;1.70;;;0.95;;
25073;SDS011;13066;52.042;5.648;2023-07-20T12:26:07;2.55;;;0.90;;
25073;SDS011;13066;52.042;5.648;2023-07-20T12:28:39;2.67;;;1.10;;
25073;SDS011;13066;52.042;5.648;2023-07-20T12:31:08;3.22;;;1.13;;
25073;SDS011;13066;52.042;5.648;2023-07-20T12:33:37;2.80;;;1.00;;
25073;SDS011;13066;52.042;5.648;2023-07-20T12:36:05;0.75;;;0.60;;
25073;SDS011;13066;52.042;5.648;2023-07-20T12:38:33;1.63;;;0.75;;
25073;SDS011;13066;52.042;5.648;2023-07-20T12:41:01;1.15;;;0.73;;
25073;SDS011;13066;52.042;5.648;2023-07-20T12:43:31;0.70;;;0.70;;
25073;SDS011;13066;52.042;5.648;2023-07-20T12:45:59;0.98;;;0.88;;
25073;SDS011;13066;52.042;5.648;2023-07-20T12:48:27;2.75;;;0.80;;
25073;SDS011;13066;52.042;5.648;2023-07-20T12:50:55;4.00;;;0.70;;
25073;SDS011;13066;52.042;5.648;2023-07-20T12:53:23;1.25;;;0.90;;
25073;SDS011;13066;52.042;5.648;2023-07-20T12:55:51;2.00;;;1.05;;
25073;SDS011;13066;52.042;5.648;2023-07-20T12:58:19;0.82;;;0.77;;
25073;SDS011;13066;52.042;5.648;2023-07-20T13:00:49;5.00;;;0.98;;
25073;SDS011;13066;52.042;5.648;2023-07-20T13:03:17;1.40;;;0.80;;
25073;SDS011;13066;52.042;5.648;2023-07-20T13:05:48;2.83;;;0.98;;
25073;SDS011;13066;52.042;5.648;2023-07-20T13:08:19;1.60;;;0.90;;
25073;SDS011;13066;52.042;5.648;2023-07-20T13:10:51;1.02;;;0.88;;
25073;SDS011;13066;52.042;5.648;2023-07-20T13:13:19;1.52;;;0.90;;
25073;SDS011;13066;52.042;5.648;2023-07-20T13:15:48;1.88;;;0.85;;
25073;SDS011;13066;52.042;5.648;2023-07-20T13:18:17;1.08;;;0.77;;
25073;SDS011;13066;52.042;5.648;2023-07-20T13:20:45;2.25;;;0.90;;
25073;SDS011;13066;52.042;5.648;2023-07-20T13:23:13;0.85;;;0.70;;
25073;SDS011;13066;52.042;5.648;2023-07-20T13:25:41;7.38;;;1.25;;
25073;SDS011;13066;52.042;5.648;2023-07-20T13:28:09;3.20;;;1.00;;
25073;SDS011;13066;52.042;5.648;2023-07-20T13:30:37;1.15;;;0.90;;
25073;SDS011;13066;52.042;5.648;2023-07-20T13:33:08;2.58;;;0.90;;
25073;SDS011;13066;52.042;5.648;2023-07-20T13:35:43;1.58;;;1.05;;
25073;SDS011;13066;52.042;5.648;2023-07-20T13:38:14;1.10;;;0.82;;
25073;SDS011;13066;52.042;5.648;2023-07-20T13:40:42;2.65;;;1.05;;
25073;SDS011;13066;52.042;5.648;2023-07-20T13:43:11;1.30;;;0.73;;
25073;SDS011;13066;52.042;5.648;2023-07-20T13:45:39;0.90;;;0.80;;
25073;SDS011;13066;52.042;5.648;2023-07-20T13:48:09;1.20;;;0.93;;
25073;SDS011;13066;52.042;5.648;2023-07-20T13:50:37;1.02;;;0.80;;
25073;SDS011;13066;52.042;5.648;2023-07-20T13:53:24;1.20;;;0.90;;
25073;SDS011;13066;52.042;5.648;2023-07-20T13:55:57;4.57;;;1.20;;
25073;SDS011;13066;52.042;5.648;2023-07-20T13:58:28;1.40;;;1.05;;
25073;SDS011;13066;52.042;5.648;2023-07-20T14:00:57;2.75;;;0.90;;
25073;SDS011;13066;52.042;5.648;2023-07-20T14:03:26;2.42;;;0.77;;
25073;SDS011;13066;52.042;5.648;2023-07-20T14:05:54;1.98;;;1.05;;
25073;SDS011;13066;52.042;5.648;2023-07-20T14:08:25;1.23;;;1.13;;
25073;SDS011;13066;52.042;5.648;2023-07-20T14:10:54;1.33;;;0.82;;
25073;SDS011;13066;52.042;5.648;2023-07-20T14:13:25;2.30;;;0.93;;
25073;SDS011;13066;52.042;5.648;2023-07-20T14:16:12;1.58;;;0.98;;
25073;SDS011;13066;52.042;5.648;2023-07-20T14:18:41;1.20;;;0.80;;
25073;SDS011;13066;52.042;5.648;2023-07-20T14:21:12;1.45;;;1.00;;
25073;SDS011;13066;52.042;5.648;2023-07-20T14:23:41;2.03;;;1.10;;
25073;SDS011;13066;52.042;5.648;2023-07-20T14:26:13;1.50;;;1.00;;
25073;SDS011;13066;52.042;5.648;2023-07-20T14:28:41;12.70;;;1.30;;
25073;SDS011;13066;52.042;5.648;2023-07-20T14:31:09;5.38;;;1.00;;
25073;SDS011;13066;52.042;5.648;2023-07-20T14:33:37;1.42;;;0.90;;
25073;SDS011;13066;52.042;5.648;2023-07-20T14:36:08;3.40;;;0.90;;
25073;SDS011;13066;52.042;5.648;2023-07-20T14:38:37;3.42;;;1.15;;
25073;SDS011;13066;52.042;5.648;2023-07-20T14:41:07;1.45;;;0.80;;
25073;SDS011;13066;52.042;5.648;2023-07-20T14:43:35;4.18;;;1.40;;
25073;SDS011;13066;52.042;5.648;2023-07-20T14:46:03;1.63;;;0.90;;
25073;SDS011;13066;52.042;5.648;2023-07-20T14:48:31;28.77;;;7.82;;
25073;SDS011;13066;52.042;5.648;2023-07-20T14:50:59;3.50;;;1.73;;
25073;SDS011;13066;52.042;5.648;2023-07-20T14:53:32;2.35;;;1.50;;
25073;SDS011;13066;52.042;5.648;2023-07-20T14:56:02;4.13;;;1.73;;
25073;SDS011;13066;52.042;5.648;2023-07-20T14:58:31;3.03;;;1.27;;
25073;SDS011;13066;52.042;5.648;2023-07-20T15:01:01;4.22;;;1.63;;
25073;SDS011;13066;52.042;5.648;2023-07-20T15:03:30;4.88;;;1.40;;
25073;SDS011;13066;52.042;5.648;2023-07-20T15:05:58;2.50;;;1.30;;
25073;SDS011;13066;52.042;5.648;2023-07-20T15:08:26;3.33;;;1.50;;
25073;SDS011;13066;52.042;5.648;2023-07-20T15:10:56;2.97;;;1.10;;
25073;SDS011;13066;52.042;5.648;2023-07-20T15:13:24;3.80;;;1.35;;